createdAt,value
2023-02-02T00:01:47.637Z,70.40
2023-02-02T00:04:18.608Z,71.13
2023-02-02T00:06:46.134Z,69.79
2023-02-02T00:09:15.405Z,70.42
2023-02-02T00:11:44.591Z,70.08
2023-02-02T00:14:11.627Z,70.51
2023-02-02T00:16:41.360Z,70.56
2023-02-02T00:19:11.472Z,70.84
2023-02-02T00:21:38.413Z,70.33
2023-02-02T00:24:08.235Z,70.37
2023-02-02T00:26:36.073Z,70.84
2023-02-02T00:29:03.695Z,70.82
2023-02-02T00:31:30.358Z,70.31
2023-02-02T00:33:56.974Z,71.49
2023-02-02T00:36:23.715Z,71.91
2023-02-02T00:38:51.320Z,71.44
2023-02-02T00:41:17.873Z,71.55
2023-02-02T00:43:44.776Z,72.05
2023-02-02T00:46:17.023Z,70.70
2023-02-02T00:48:43.601Z,71.78
2023-02-02T00:51:10.578Z,71.50
2023-02-02T00:53:37.173Z,70.88
2023-02-02T00:56:04.009Z,71.31
2023-02-02T00:58:30.586Z,71.47
2023-02-02T01:00:57.229Z,70.49
2023-02-02T01:03:23.780Z,72.10
2023-02-02T01:05:52.052Z,72.19
2023-02-02T01:08:18.800Z,72.53
2023-02-02T01:10:45.401Z,72.00
2023-02-02T01:13:11.951Z,71.70
2023-02-02T01:15:38.481Z,71.99
2023-02-02T01:18:05.106Z,71.72
2023-02-02T01:20:32.357Z,71.88
2023-02-02T01:22:58.914Z,72.14
2023-02-02T01:25:25.885Z,71.84
2023-02-02T01:27:52.597Z,72.19
2023-02-02T01:30:19.201Z,72.70
2023-02-02T01:32:45.844Z,72.53
2023-02-02T01:35:12.540Z,72.55
2023-02-02T01:37:39.376Z,72.03
2023-02-02T01:40:07.174Z,72.60
2023-02-02T01:42:33.778Z,71.49
2023-02-02T01:47:51.913Z,71.85
2023-02-02T01:50:21.589Z,72.50
2023-02-02T01:52:51.180Z,72.43
2023-02-02T01:55:23.911Z,72.45
2023-02-02T01:57:57.434Z,71.28
2023-02-02T02:00:27.228Z,72.89
2023-02-02T02:03:00.200Z,72.46
2023-02-02T02:05:32.009Z,71.26
2023-02-02T02:08:08.261Z,71.14
2023-02-02T02:10:35.011Z,71.41
2023-02-02T02:13:01.707Z,71.12
2023-02-02T02:15:55.960Z,72.23
2023-02-02T02:18:34.247Z,71.82
2023-02-02T02:27:03.801Z,71.41
2023-02-02T02:30:10.215Z,71.10
2023-02-02T02:35:42.768Z,71.32
2023-02-02T02:38:49.119Z,71.23
2023-02-02T02:41:22.724Z,70.72
2023-02-02T02:43:56.753Z,71.40
2023-02-02T02:46:24.035Z,71.54
2023-02-02T02:48:50.588Z,71.04
2023-02-02T02:54:21.199Z,71.15
2023-02-02T03:07:29.531Z,71.66
2023-02-02T03:09:58.108Z,71.94
2023-02-02T03:12:24.849Z,71.00
2023-02-02T03:14:51.521Z,71.35
2023-02-02T03:17:18.051Z,71.97
2023-02-02T03:19:44.580Z,71.01
2023-02-02T03:22:11.110Z,71.19
2023-02-02T03:24:37.830Z,71.66
2023-02-02T03:27:04.662Z,72.45
2023-02-02T03:29:31.280Z,72.64
2023-02-02T03:31:57.920Z,72.21
2023-02-02T03:34:24.497Z,72.09
2023-02-02T03:36:51.124Z,72.36
2023-02-02T03:39:17.681Z,72.60
2023-02-02T03:41:44.198Z,71.33
2023-02-02T03:44:10.767Z,71.54
2023-02-02T03:46:37.332Z,72.28
2023-02-02T03:49:04.041Z,72.28
2023-02-02T03:51:30.573Z,72.86
2023-02-02T03:53:57.105Z,71.82
2023-02-02T03:56:23.661Z,71.95
2023-02-02T03:58:50.226Z,71.54
2023-02-02T04:01:16.893Z,71.82
2023-02-02T04:03:43.651Z,71.09
2023-02-02T04:06:10.282Z,71.43
2023-02-02T04:08:36.945Z,72.58
2023-02-02T04:11:03.638Z,72.16
2023-02-02T04:13:30.906Z,72.15
2023-02-02T04:16:00.631Z,71.22
2023-02-02T04:18:27.372Z,71.23
2023-02-02T04:21:02.558Z,72.12
2023-02-02T04:23:30.040Z,72.41
2023-02-02T04:25:57.634Z,72.73
2023-02-02T04:28:25.171Z,71.47
2023-02-02T04:30:53.167Z,72.59
2023-02-02T04:33:21.360Z,72.90
2023-02-02T04:35:47.943Z,71.60
2023-02-02T04:38:14.745Z,72.87
2023-02-02T04:40:43.013Z,72.48
2023-02-02T04:43:10.039Z,72.79
2023-02-02T04:45:36.816Z,72.54
2023-02-02T04:48:04.254Z,73.44
2023-02-02T04:50:31.197Z,72.37
2023-02-02T04:52:58.341Z,72.31
2023-02-02T04:55:25.238Z,72.71
2023-02-02T04:57:51.985Z,72.22
2023-02-02T05:00:18.962Z,73.40
2023-02-02T05:02:45.696Z,71.89
2023-02-02T05:05:14.299Z,73.13
2023-02-02T05:07:41.344Z,72.50
2023-02-02T05:10:09.885Z,71.85
2023-02-02T05:12:36.509Z,72.78
2023-02-02T05:15:05.492Z,73.52
2023-02-02T05:17:32.676Z,72.08
2023-02-02T05:19:59.183Z,73.53
2023-02-02T05:22:25.960Z,73.66
2023-02-02T05:24:52.548Z,73.02
2023-02-02T05:27:19.111Z,73.18
2023-02-02T05:29:47.804Z,72.71
2023-02-02T05:32:14.388Z,73.48
2023-02-02T05:34:40.929Z,73.74
2023-02-02T05:37:07.500Z,73.60
2023-02-02T05:39:34.120Z,74.38
2023-02-02T05:42:00.676Z,72.91
2023-02-02T05:44:27.225Z,74.09
2023-02-02T05:46:53.760Z,73.82
2023-02-02T05:49:20.312Z,72.97
2023-02-02T05:51:50.793Z,73.08
2023-02-02T05:54:20.701Z,73.58
2023-02-02T05:56:48.747Z,74.50
2023-02-02T05:59:15.384Z,74.29
2023-02-02T06:01:41.950Z,73.85
2023-02-02T06:04:08.649Z,73.56
2023-02-02T06:06:35.792Z,74.10
2023-02-02T06:09:02.566Z,74.09
2023-02-02T06:11:29.260Z,72.75
2023-02-02T06:13:56.511Z,72.99
2023-02-02T06:16:23.535Z,73.94
2023-02-02T06:18:50.139Z,73.33
2023-02-02T06:21:17.317Z,74.46
2023-02-02T06:23:45.879Z,73.61
2023-02-02T06:26:14.066Z,74.31
2023-02-02T06:28:40.992Z,73.32
2023-02-02T06:31:09.985Z,74.39
2023-02-02T06:33:37.519Z,73.45
2023-02-02T06:36:06.422Z,73.97
2023-02-02T06:38:33.807Z,74.67
2023-02-02T06:41:01.540Z,73.79
2023-02-02T06:43:29.067Z,73.60
2023-02-02T06:45:57.861Z,73.69
2023-02-02T06:48:24.985Z,74.39
2023-02-02T06:50:51.681Z,74.39
2023-02-02T06:53:23.009Z,73.28
2023-02-02T06:56:02.348Z,74.59
2023-02-02T06:58:30.508Z,74.61
2023-02-02T07:01:04.340Z,73.40
2023-02-02T07:03:31.076Z,73.56
2023-02-02T07:05:57.870Z,74.89
2023-02-02T07:08:24.546Z,74.53
2023-02-02T07:11:14.156Z,73.79
2023-02-02T07:13:37.930Z,74.86
2023-02-02T07:16:05.785Z,73.73
2023-02-02T07:18:32.593Z,75.11
2023-02-02T07:21:00.583Z,73.75
2023-02-02T07:23:28.411Z,74.76
2023-02-02T07:28:38.617Z,74.78
2023-02-02T07:31:20.826Z,75.24
2023-02-02T07:33:48.707Z,73.93
2023-02-02T07:36:20.104Z,75.84
2023-02-02T07:38:48.650Z,75.07
2023-02-02T07:41:16.237Z,74.01
2023-02-02T07:43:43.500Z,75.47
2023-02-02T07:46:12.856Z,74.41
2023-02-02T07:48:40.730Z,74.70
2023-02-02T07:51:11.221Z,75.36
2023-02-02T07:53:38.162Z,75.04
2023-02-02T07:56:10.568Z,75.98
2023-02-02T07:58:37.402Z,75.23
2023-02-02T08:01:05.731Z,75.14
2023-02-02T08:03:33.177Z,74.79
2023-02-02T08:06:00.116Z,75.17
2023-02-02T08:08:27.142Z,74.72
2023-02-02T08:10:54.485Z,75.58
2023-02-02T08:13:21.114Z,75.39
2023-02-02T08:15:47.808Z,75.01
2023-02-02T08:18:14.544Z,74.96
2023-02-02T08:20:41.080Z,75.13
2023-02-02T08:23:13.488Z,76.14
2023-02-02T08:25:40.348Z,74.93
2023-02-02T08:28:06.922Z,75.35
2023-02-02T08:30:35.375Z,76.12
2023-02-02T08:33:01.987Z,75.15
2023-02-02T08:35:28.585Z,75.65
2023-02-02T08:37:55.183Z,75.34
2023-02-02T08:40:21.793Z,76.00
2023-02-02T08:42:54.469Z,75.94
2023-02-02T08:46:02.282Z,74.86
2023-02-02T08:48:12.066Z,75.75
2023-02-02T08:50:39.470Z,75.05
2023-02-02T08:53:06.157Z,73.76
2023-02-02T08:55:32.782Z,73.57
2023-02-02T08:57:59.319Z,73.11
2023-02-02T09:00:25.941Z,71.12
2023-02-02T09:02:52.532Z,70.68
2023-02-02T09:05:19.119Z,70.64
2023-02-02T09:07:46.606Z,68.36
2023-02-02T09:10:13.424Z,68.52
2023-02-02T09:12:39.933Z,67.47
2023-02-02T09:15:06.864Z,66.83
2023-02-02T09:17:33.468Z,65.38
2023-02-02T09:20:00.034Z,65.30
2023-02-02T09:22:28.772Z,64.15
2023-02-02T09:24:55.435Z,64.37
2023-02-02T09:27:22.168Z,64.11
2023-02-02T09:29:48.910Z,63.27
2023-02-02T09:32:15.934Z,62.76
2023-02-02T09:34:42.461Z,62.50
2023-02-02T09:37:09.012Z,62.08
2023-02-02T09:39:35.570Z,61.69
2023-02-02T09:52:42.572Z,62.52
2023-02-02T09:57:53.154Z,62.73
2023-02-02T10:03:11.153Z,61.57
2023-02-02T10:05:50.429Z,60.57
2023-02-02T10:08:34.612Z,59.35
2023-02-02T10:11:08.489Z,60.22
2023-02-02T10:13:39.271Z,59.39
2023-02-02T10:16:17.175Z,59.46
2023-02-02T10:23:59.614Z,57.75
2023-02-02T10:32:33.473Z,58.21
2023-02-02T10:45:56.946Z,60.58
2023-02-02T10:48:32.656Z,60.48
2023-02-02T10:51:02.692Z,60.12
2023-02-02T10:53:30.383Z,60.56
2023-02-02T10:56:03.570Z,60.28
2023-02-02T10:58:44.427Z,60.42
2023-02-02T11:01:11.908Z,60.30
2023-02-02T11:03:40.145Z,60.78
2023-02-02T11:06:28.453Z,60.37
2023-02-02T11:09:05.413Z,60.64
2023-02-02T11:11:52.366Z,61.00
2023-02-02T11:14:30.376Z,60.66
2023-02-02T11:17:02.539Z,60.99
2023-02-02T11:19:32.641Z,61.41
2023-02-02T11:22:02.127Z,61.50
2023-02-02T11:24:45.302Z,61.40
2023-02-02T11:27:17.953Z,61.71
2023-02-02T11:29:48.158Z,62.27
2023-02-02T11:32:33.103Z,62.58
2023-02-02T11:37:51.515Z,62.71
2023-02-02T11:40:29.129Z,63.21
2023-02-02T11:42:58.104Z,63.41
2023-02-02T11:45:34.355Z,63.06
2023-02-02T11:48:06.918Z,63.77
2023-02-02T11:50:34.257Z,64.28
2023-02-02T11:53:00.994Z,63.82
2023-02-02T11:55:30.626Z,64.39
2023-02-02T12:00:59.418Z,64.47
2023-02-02T12:06:33.607Z,64.04
2023-02-02T12:09:02.464Z,63.80
2023-02-02T12:25:00.990Z,64.87
2023-02-02T12:30:27.514Z,65.29
2023-02-02T12:44:00.692Z,64.37
2023-02-02T12:54:48.226Z,64.25
2023-02-02T13:11:32.720Z,62.82
2023-02-02T13:14:08.550Z,64.24
2023-02-02T13:16:38.157Z,63.51
2023-02-02T13:19:10.408Z,63.38
2023-02-02T13:21:39.826Z,64.89
2023-02-02T13:24:12.182Z,64.84
2023-02-02T13:26:42.964Z,64.68
2023-02-02T13:32:15.201Z,64.24
2023-02-02T13:34:48.047Z,65.06
2023-02-02T13:37:39.919Z,64.90
2023-02-02T14:03:02.746Z,64.23
2023-02-02T14:05:33.207Z,64.42
2023-02-02T14:10:44.298Z,64.90
2023-02-02T14:15:55.590Z,64.86
2023-02-02T14:38:15.387Z,63.81
2023-02-02T14:43:48.838Z,65.14
2023-02-02T14:51:32.773Z,63.83
2023-02-02T14:54:02.551Z,63.98
2023-02-02T14:59:27.024Z,63.26
2023-02-02T15:02:01.103Z,63.29
2023-02-02T15:04:29.527Z,64.07
2023-02-02T15:06:56.713Z,63.81
2023-02-02T15:14:41.858Z,62.71
2023-02-02T15:20:21.219Z,63.42
2023-02-02T15:31:07.212Z,62.41
2023-02-02T15:33:39.633Z,63.15
2023-02-02T15:36:12.267Z,62.68
2023-02-02T15:38:41.818Z,63.51
2023-02-02T15:41:20.224Z,63.46
2023-02-02T15:43:47.055Z,63.10
2023-02-02T15:46:24.177Z,63.23
2023-02-02T15:49:34.277Z,62.93
2023-02-02T15:52:10.766Z,63.31
2023-02-02T15:54:38.334Z,64.04
2023-02-02T15:57:23.939Z,63.35
2023-02-02T15:59:50.654Z,64.02
2023-02-02T16:04:55.903Z,63.00
2023-02-02T16:07:28.790Z,63.86
2023-02-02T16:09:57.549Z,63.93
2023-02-02T16:12:24.523Z,63.44
2023-02-02T16:14:53.605Z,63.90
2023-02-02T16:17:23.004Z,64.30
2023-02-02T16:19:51.401Z,63.88
2023-02-02T16:22:23.907Z,64.55
2023-02-02T16:24:54.192Z,63.38
2023-02-02T16:27:24.453Z,63.41
2023-02-02T16:29:51.822Z,64.27
2023-02-02T16:32:38.780Z,63.61
2023-02-02T16:35:09.745Z,64.80
2023-02-02T16:37:36.588Z,64.21
2023-02-02T16:40:28.560Z,63.99
2023-02-02T16:43:19.862Z,64.34
2023-02-02T16:45:50.787Z,63.77
2023-02-02T16:48:39.249Z,63.55
2023-02-02T16:56:48.721Z,63.86
2023-02-02T16:59:24.857Z,63.63
2023-02-02T17:01:55.393Z,64.56
2023-02-02T17:04:29.287Z,64.01
2023-02-02T17:07:05.271Z,64.49
2023-02-02T17:09:37.350Z,64.25
2023-02-02T17:12:33.213Z,63.59
2023-02-02T17:15:22.858Z,63.78
2023-02-02T17:17:49.676Z,64.68
2023-02-02T17:20:17.832Z,64.57
2023-02-02T17:22:47.617Z,63.85
2023-02-02T17:25:17.108Z,63.85
2023-02-02T17:27:45.175Z,63.76
2023-02-02T17:30:18.504Z,64.67
2023-02-02T17:32:45.604Z,64.16
2023-02-02T17:35:17.979Z,63.94
2023-02-02T17:37:44.578Z,64.13
2023-02-02T17:40:16.034Z,64.21
2023-02-02T17:42:45.049Z,65.07
2023-02-02T17:45:20.200Z,65.10
2023-02-02T17:47:46.798Z,64.07
2023-02-02T17:50:13.461Z,64.80
2023-02-02T17:52:40.108Z,64.23
2023-02-02T17:55:14.329Z,64.73
2023-02-02T17:57:41.138Z,64.27
2023-02-02T18:00:08.384Z,64.48
2023-02-02T18:02:35.120Z,64.40
2023-02-02T18:05:03.150Z,64.49
2023-02-02T18:07:29.702Z,64.24
2023-02-02T18:09:56.256Z,64.31
2023-02-02T18:12:23.523Z,63.77
2023-02-02T18:14:50.094Z,64.02
2023-02-02T18:17:16.626Z,64.21
2023-02-02T18:19:45.183Z,63.85
2023-02-02T18:22:13.775Z,64.26
2023-02-02T18:24:41.088Z,63.53
2023-02-02T18:27:08.423Z,64.21
2023-02-02T18:29:35.367Z,64.00
2023-02-02T18:32:02.352Z,63.94
2023-02-02T18:34:30.544Z,64.13
2023-02-02T18:36:57.103Z,64.10
2023-02-02T18:39:23.718Z,63.94
2023-02-02T18:41:50.347Z,64.01
2023-02-02T18:44:17.251Z,64.58
2023-02-02T18:46:43.805Z,64.54
2023-02-02T18:49:10.986Z,63.73
2023-02-02T18:51:37.605Z,64.53
2023-02-02T18:54:04.239Z,64.24
2023-02-02T18:56:30.874Z,64.53
2023-02-02T18:58:58.188Z,64.52
2023-02-02T19:01:26.000Z,64.66
2023-02-02T19:03:57.280Z,64.77
2023-02-02T19:06:44.776Z,64.90
2023-02-02T19:09:13.741Z,64.61
2023-02-02T19:11:43.891Z,64.65
2023-02-02T19:14:12.861Z,64.58
2023-02-02T19:16:39.416Z,64.98
2023-02-02T19:19:21.941Z,64.47
2023-02-02T19:21:48.814Z,65.05
2023-02-02T19:24:15.809Z,64.44
2023-02-02T19:26:46.934Z,64.81
2023-02-02T19:29:18.762Z,64.17
2023-02-02T19:31:45.914Z,65.19
2023-02-02T19:34:16.995Z,65.24
2023-02-02T19:36:46.879Z,65.01
2023-02-02T19:39:18.612Z,64.85
2023-02-02T19:41:45.286Z,64.88
2023-02-02T19:44:17.379Z,63.96
2023-02-02T19:46:46.572Z,64.01
2023-02-02T19:49:22.012Z,64.33
2023-02-02T19:51:53.612Z,63.99
2023-02-02T19:54:39.373Z,64.30
2023-02-02T19:59:45.439Z,63.80
2023-02-02T20:02:41.025Z,64.01
2023-02-02T20:07:51.979Z,64.08
2023-02-02T20:10:27.428Z,64.38
2023-02-02T20:12:54.976Z,64.58
2023-02-02T20:18:01.425Z,64.27
2023-02-02T20:20:33.558Z,64.35
2023-02-02T20:23:00.505Z,64.08
2023-02-02T20:25:29.263Z,64.10
2023-02-02T20:27:58.936Z,64.13
2023-02-02T20:30:30.877Z,64.94
2023-02-02T20:32:59.196Z,64.28
2023-02-02T20:35:35.933Z,65.14
2023-02-02T20:38:13.258Z,65.00
2023-02-02T20:40:39.831Z,64.95
2023-02-02T20:43:06.422Z,65.16
2023-02-02T20:45:33.047Z,65.10
2023-02-02T20:47:59.576Z,65.15
2023-02-02T20:50:26.332Z,65.36
2023-02-02T20:52:54.056Z,65.32
2023-02-02T20:55:20.827Z,65.48
2023-02-02T20:57:47.423Z,65.53
2023-02-02T21:00:17.166Z,65.64
2023-02-02T21:02:43.808Z,65.70
2023-02-02T21:05:10.397Z,65.60
2023-02-02T21:07:37.139Z,65.94
2023-02-02T21:10:05.114Z,66.15
2023-02-02T21:12:31.733Z,66.30
2023-02-02T21:14:58.361Z,66.60
2023-02-02T21:17:24.996Z,66.37
2023-02-02T21:19:51.567Z,66.34
2023-02-02T21:22:18.129Z,66.73
2023-02-02T21:24:44.654Z,66.59
2023-02-02T21:27:11.347Z,66.36
2023-02-02T21:29:38.482Z,67.24
2023-02-02T21:32:06.057Z,66.97
2023-02-02T21:34:33.183Z,67.11
2023-02-02T21:36:59.962Z,67.61
2023-02-02T21:42:15.639Z,68.35
2023-02-02T21:47:32.360Z,68.57
2023-02-02T21:50:19.273Z,68.62
2023-02-02T21:52:46.371Z,68.93
2023-02-02T21:58:22.255Z,70.05
2023-02-02T22:00:50.328Z,70.04
2023-02-02T22:06:17.890Z,69.72
2023-02-02T22:08:44.447Z,69.97
2023-02-02T22:11:24.351Z,70.13
2023-02-02T22:13:52.864Z,70.33
2023-02-02T22:16:20.889Z,69.64
2023-02-02T22:18:47.849Z,70.25
2023-02-02T22:21:18.801Z,70.23
2023-02-02T22:23:46.550Z,69.83
2023-02-02T22:26:29.313Z,70.07
2023-02-02T22:28:56.268Z,70.15
2023-02-02T22:31:22.930Z,69.63
2023-02-02T22:33:49.595Z,70.15
2023-02-02T22:36:16.161Z,70.64
2023-02-02T22:38:42.668Z,70.89
2023-02-02T22:41:09.650Z,71.29
2023-02-02T22:43:36.435Z,70.77
2023-02-02T22:46:03.135Z,70.45
2023-02-02T22:48:29.732Z,70.59
2023-02-02T22:50:56.266Z,70.56
2023-02-02T22:53:22.806Z,70.86
2023-02-02T22:55:56.304Z,71.28
2023-02-02T22:58:24.534Z,71.26
2023-02-02T23:00:51.452Z,71.02
2023-02-02T23:03:18.264Z,70.89
2023-02-02T23:05:44.897Z,70.78
2023-02-02T23:08:11.379Z,71.03
2023-02-02T23:10:38.266Z,71.31
2023-02-02T23:13:05.890Z,71.18
2023-02-02T23:15:32.972Z,71.31
2023-02-02T23:17:59.782Z,71.26
2023-02-02T23:20:27.756Z,71.61
2023-02-02T23:22:54.556Z,71.45
2023-02-02T23:25:22.089Z,71.38
2023-02-02T23:27:49.033Z,71.16
2023-02-02T23:30:15.917Z,71.39
2023-02-02T23:32:42.615Z,71.01
2023-02-02T23:35:11.012Z,71.32
2023-02-02T23:37:37.787Z,71.00
2023-02-02T23:40:05.039Z,71.01
2023-02-02T23:42:32.082Z,70.87
2023-02-02T23:44:58.625Z,70.66
2023-02-02T23:47:25.730Z,70.93
2023-02-02T23:49:52.534Z,70.57
2023-02-02T23:52:19.129Z,71.44
2023-02-02T23:54:45.848Z,70.94
2023-02-02T23:57:12.429Z,71.30
2023-02-02T23:59:38.939Z,71.02
